Time;durP1;ratioP1;P1;durP2;ratioP2;P2;SDS_P1;SDS_P2;PMS_P1;PMS_P2;Temp;Humidity;BMP_temperature;BMP_pressure;BME280_temperature;BME280_humidity;BME280_pressure;Samples;Min_cycle;Max_cycle;Signal;HPM_P1;HPM_P2
2023/01/23 00:02:20;;;;;;;17.40;12.50;;;;;;;;;;5030918;28;20919;-88
2023/01/23 00:04:48;;;;;;;14.90;11.47;;;;;;;;;;5030342;28;20451;-87
2023/01/23 00:07:14;;;;;;;14.13;11.20;;;;;;;;;;5030372;28;20459;-88
2023/01/23 00:09:40;;;;;;;16.20;12.23;;;;;;;;;;5033087;28;20959;-87
2023/01/23 00:12:06;;;;;;;18.63;12.77;;;;;;;;;;5030921;28;20454;-91
2023/01/23 00:14:32;;;;;;;15.33;12.03;;;;;;;;;;5030821;28;20633;-88
2023/01/23 00:16:58;;;;;;;17.53;12.47;;;;;;;;;;5030200;28;20433;-88
2023/01/23 00:19:24;;;;;;;17.63;13.10;;;;;;;;;;5033813;28;20460;-89
2023/01/23 00:21:50;;;;;;;14.53;11.93;;;;;;;;;;5035879;28;20506;-87
2023/01/23 00:24:17;;;;;;;14.33;11.17;;;;;;;;;;5034684;28;20397;-88
2023/01/23 00:26:43;;;;;;;14.70;11.77;;;;;;;;;;5036811;28;20547;-88
2023/01/23 00:29:09;;;;;;;16.07;12.57;;;;;;;;;;5034836;28;20428;-87
2023/01/23 00:31:36;;;;;;;13.87;11.07;;;;;;;;;;5036031;28;20482;-88
2023/01/23 00:34:07;;;;;;;16.10;11.70;;;;;;;;;;5035210;28;20875;-88
2023/01/23 00:36:35;;;;;;;14.63;11.70;;;;;;;;;;5033774;28;20653;-88
2023/01/23 00:39:02;;;;;;;14.77;11.27;;;;;;;;;;5034945;28;20449;-88
2023/01/23 00:41:28;;;;;;;15.07;11.13;;;;;;;;;;5034279;28;20243;-87
2023/01/23 00:43:54;;;;;;;15.47;11.07;;;;;;;;;;5034144;28;20436;-88
2023/01/23 00:46:20;;;;;;;16.83;11.63;;;;;;;;;;5034655;28;20451;-87
2023/01/23 00:48:46;;;;;;;15.33;11.77;;;;;;;;;;5034338;28;20405;-86
2023/01/23 00:51:13;;;;;;;15.77;11.77;;;;;;;;;;5033601;28;20464;-87
2023/01/23 00:53:39;;;;;;;13.57;11.17;;;;;;;;;;5032893;28;20548;-87
2023/01/23 00:56:05;;;;;;;17.27;12.63;;;;;;;;;;5026331;28;20444;-89
2023/01/23 00:58:32;;;;;;;15.43;11.77;;;;;;;;;;5033399;28;20456;-88
2023/01/23 01:00:58;;;;;;;17.20;12.80;;;;;;;;;;5033211;28;20448;-88
2023/01/23 01:03:24;;;;;;;15.27;11.30;;;;;;;;;;5034625;28;20856;-89
2023/01/23 01:05:50;;;;;;;14.07;11.87;;;;;;;;;;5034032;28;20595;-88
2023/01/23 01:08:16;;;;;;;14.07;10.77;;;;;;;;;;5030251;28;20570;-88
2023/01/23 01:10:43;;;;;;;14.50;11.60;;;;;;;;;;5032701;28;20436;-89
2023/01/23 01:13:09;;;;;;;16.40;11.93;;;;;;;;;;5033638;28;20575;-87
2023/01/23 01:15:35;;;;;;;13.60;11.00;;;;;;;;;;5033077;28;20194;-87
2023/01/23 01:18:01;;;;;;;15.67;12.23;;;;;;;;;;5034404;28;20703;-88
2023/01/23 01:20:28;;;;;;;14.60;11.07;;;;;;;;;;5033584;28;21081;-87
2023/01/23 01:22:55;;;;;;;14.83;10.90;;;;;;;;;;5032510;28;20425;-87
2023/01/23 01:25:21;;;;;;;15.60;11.57;;;;;;;;;;5034298;28;20451;-89
2023/01/23 01:27:48;;;;;;;13.83;10.53;;;;;;;;;;5032644;28;20436;-88
2023/01/23 01:30:15;;;;;;;15.57;11.20;;;;;;;;;;5033919;28;20177;-88
2023/01/23 01:32:41;;;;;;;13.30;11.27;;;;;;;;;;5034784;28;20451;-87
2023/01/23 01:35:08;;;;;;;12.77;9.90;;;;;;;;;;5034194;28;20439;-88
2023/01/23 01:37:39;;;;;;;14.03;11.60;;;;;;;;;;5034998;28;20428;-86
2023/01/23 01:40:07;;;;;;;12.57;10.13;;;;;;;;;;5034006;28;20488;-85
2023/01/23 01:42:38;;;;;;;15.03;11.40;;;;;;;;;;5034179;28;20424;-85
2023/01/23 01:45:04;;;;;;;15.40;11.70;;;;;;;;;;5032477;28;20182;-87
2023/01/23 01:47:30;;;;;;;13.33;10.57;;;;;;;;;;5032537;28;20935;-86
2023/01/23 01:49:59;;;;;;;13.67;11.00;;;;;;;;;;5033373;28;20890;-87
2023/01/23 01:52:25;;;;;;;16.27;11.83;;;;;;;;;;5032507;28;20464;-89
2023/01/23 01:54:54;;;;;;;15.87;10.77;;;;;;;;;;5032612;28;20575;-87
2023/01/23 01:57:26;;;;;;;15.10;11.50;;;;;;;;;;5031593;28;20429;-86
2023/01/23 01:59:55;;;;;;;16.63;13.23;;;;;;;;;;5032469;28;20483;-86
2023/01/23 02:02:42;;;;;;;14.63;11.50;;;;;;;;;;5029357;28;20178;-86
2023/01/23 02:05:16;;;;;;;13.60;10.33;;;;;;;;;;5044536;28;20442;-86
2023/01/23 02:08:04;;;;;;;15.80;11.70;;;;;;;;;;5031865;28;20421;-86
2023/01/23 02:10:33;;;;;;;13.03;11.03;;;;;;;;;;5032842;28;20437;-87
2023/01/23 02:13:18;;;;;;;14.90;11.93;;;;;;;;;;5034490;28;20385;-87
2023/01/23 02:15:44;;;;;;;13.63;10.57;;;;;;;;;;5031883;28;20423;-87
2023/01/23 02:18:10;;;;;;;13.10;11.23;;;;;;;;;;5031910;28;20425;-87
2023/01/23 02:20:37;;;;;;;15.70;11.83;;;;;;;;;;5032293;28;20452;-87
2023/01/23 02:23:09;;;;;;;13.20;10.60;;;;;;;;;;5033303;28;21019;-85
2023/01/23 02:25:35;;;;;;;14.97;10.70;;;;;;;;;;5033843;28;20742;-85
2023/01/23 02:28:01;;;;;;;13.07;10.47;;;;;;;;;;5033471;28;20470;-86
2023/01/23 02:30:27;;;;;;;16.07;11.13;;;;;;;;;;5032997;28;20413;-87
2023/01/23 02:32:54;;;;;;;13.90;10.77;;;;;;;;;;5032551;28;20841;-86
2023/01/23 02:35:26;;;;;;;12.77;10.30;;;;;;;;;;5033301;28;20416;-86
2023/01/23 02:37:55;;;;;;;13.73;10.80;;;;;;;;;;5034012;28;20440;-87
2023/01/23 02:40:29;;;;;;;13.23;10.07;;;;;;;;;;5033345;28;20453;-87
2023/01/23 02:42:56;;;;;;;12.47;10.37;;;;;;;;;;5034752;28;20396;-86
2023/01/23 02:45:22;;;;;;;13.83;10.30;;;;;;;;;;5034779;28;21001;-85
2023/01/23 02:47:48;;;;;;;12.83;10.00;;;;;;;;;;5032604;28;20943;-85
2023/01/23 02:50:14;;;;;;;13.00;10.27;;;;;;;;;;5033251;28;20514;-87
2023/01/23 02:52:40;;;;;;;15.20;10.83;;;;;;;;;;5033159;28;20559;-86
2023/01/23 02:55:06;;;;;;;15.80;9.97;;;;;;;;;;5032975;28;20485;-86
2023/01/23 02:57:33;;;;;;;12.77;10.33;;;;;;;;;;5031925;28;20503;-86
2023/01/23 03:00:14;;;;;;;14.30;9.83;;;;;;;;;;5032674;28;20951;-87
2023/01/23 03:02:40;;;;;;;14.10;10.43;;;;;;;;;;5033017;28;20950;-86
2023/01/23 03:05:07;;;;;;;13.13;10.83;;;;;;;;;;5033814;28;20975;-86
2023/01/23 03:07:33;;;;;;;12.50;9.97;;;;;;;;;;5032301;28;20903;-86
2023/01/23 03:09:59;;;;;;;12.97;10.77;;;;;;;;;;5028852;28;20734;-86
2023/01/23 03:12:25;;;;;;;14.00;9.90;;;;;;;;;;5027656;28;20856;-87
2023/01/23 03:14:53;;;;;;;13.33;10.20;;;;;;;;;;5028122;28;20463;-87
2023/01/23 03:17:19;;;;;;;12.80;10.10;;;;;;;;;;5027236;28;20873;-88
2023/01/23 03:19:45;;;;;;;12.40;10.20;;;;;;;;;;5052546;28;20475;-88
2023/01/23 03:22:12;;;;;;;11.33;9.07;;;;;;;;;;5039538;28;20470;-85
2023/01/23 03:24:38;;;;;;;11.13;9.20;;;;;;;;;;5033348;28;20425;-86
2023/01/23 03:27:04;;;;;;;11.30;9.20;;;;;;;;;;5032420;28;20505;-86
2023/01/23 03:32:15;;;;;;;13.13;9.57;;;;;;;;;;5029123;28;21321;-87
2023/01/23 03:34:41;;;;;;;12.63;9.83;;;;;;;;;;5028103;28;20470;-86
2023/01/23 03:37:08;;;;;;;12.07;9.43;;;;;;;;;;5043307;28;20455;-87
2023/01/23 03:42:19;;;;;;;12.07;9.13;;;;;;;;;;5031409;28;20715;-86
2023/01/23 03:44:45;;;;;;;12.00;9.43;;;;;;;;;;5028293;28;20459;-87
2023/01/23 03:47:12;;;;;;;10.77;8.43;;;;;;;;;;5033745;28;20463;-86
2023/01/23 03:49:38;;;;;;;12.30;8.77;;;;;;;;;;5033631;28;20181;-87
2023/01/23 03:52:04;;;;;;;11.30;9.30;;;;;;;;;;5052218;28;20479;-87
2023/01/23 03:54:30;;;;;;;11.10;9.03;;;;;;;;;;5051441;28;20444;-85
2023/01/23 03:56:56;;;;;;;13.00;9.90;;;;;;;;;;5047148;28;20441;-86
2023/01/23 03:59:22;;;;;;;12.97;10.17;;;;;;;;;;5035300;28;20562;-86
2023/01/23 04:01:48;;;;;;;12.30;9.30;;;;;;;;;;5036794;28;20439;-85
2023/01/23 04:04:14;;;;;;;12.33;9.90;;;;;;;;;;5038067;28;20428;-86
2023/01/23 04:06:40;;;;;;;11.80;9.23;;;;;;;;;;5035572;28;20436;-85
2023/01/23 04:09:06;;;;;;;11.37;9.53;;;;;;;;;;5035984;28;20420;-87
2023/01/23 04:11:32;;;;;;;12.63;9.57;;;;;;;;;;5034268;28;20526;-85
2023/01/23 04:13:58;;;;;;;12.57;9.60;;;;;;;;;;5035168;28;20433;-87
2023/01/23 04:16:26;;;;;;;11.47;9.97;;;;;;;;;;5035523;28;20963;-87
2023/01/23 04:18:53;;;;;;;11.60;9.33;;;;;;;;;;5035714;28;20444;-86
2023/01/23 04:21:19;;;;;;;10.67;8.77;;;;;;;;;;5052878;28;20483;-86
2023/01/23 04:23:45;;;;;;;11.73;9.83;;;;;;;;;;5036617;28;20417;-87
2023/01/23 04:26:11;;;;;;;14.50;10.03;;;;;;;;;;5034845;28;20424;-86
2023/01/23 04:28:37;;;;;;;11.40;9.17;;;;;;;;;;5034990;28;20440;-86
2023/01/23 04:31:04;;;;;;;12.80;9.70;;;;;;;;;;5035265;28;20772;-85
2023/01/23 04:33:30;;;;;;;11.10;9.90;;;;;;;;;;5034648;28;20508;-85
2023/01/23 04:36:00;;;;;;;11.40;9.30;;;;;;;;;;5035592;28;20506;-86
2023/01/23 04:38:27;;;;;;;10.83;8.60;;;;;;;;;;5051101;28;20421;-86
2023/01/23 04:40:54;;;;;;;10.53;8.70;;;;;;;;;;5050297;28;20938;-87
2023/01/23 04:43:20;;;;;;;11.83;9.27;;;;;;;;;;5034314;28;20463;-85
2023/01/23 04:45:46;;;;;;;11.37;9.13;;;;;;;;;;5035089;28;20748;-86
2023/01/23 04:48:12;;;;;;;12.37;9.17;;;;;;;;;;5035637;28;20516;-85
2023/01/23 04:50:39;;;;;;;10.67;8.67;;;;;;;;;;5035223;28;20421;-86
2023/01/23 04:53:05;;;;;;;12.43;9.90;;;;;;;;;;5035287;28;20496;-85
2023/01/23 04:55:32;;;;;;;12.20;9.80;;;;;;;;;;5033079;28;20440;-86
2023/01/23 04:57:59;;;;;;;11.50;9.63;;;;;;;;;;5052091;28;20432;-86
2023/01/23 05:00:27;;;;;;;14.17;10.00;;;;;;;;;;5035319;28;20452;-86
2023/01/23 05:02:53;;;;;;;13.37;10.27;;;;;;;;;;5034978;28;20549;-85
2023/01/23 05:05:20;;;;;;;13.57;11.03;;;;;;;;;;5035363;28;20443;-85
2023/01/23 05:07:46;;;;;;;11.47;9.93;;;;;;;;;;5033771;28;20441;-85
2023/01/23 05:10:13;;;;;;;13.00;10.47;;;;;;;;;;5018477;28;20453;-84
2023/01/23 05:12:39;;;;;;;12.47;10.43;;;;;;;;;;5047514;28;20416;-86
2023/01/23 05:15:05;;;;;;;11.77;9.67;;;;;;;;;;5034693;28;20908;-85
2023/01/23 05:17:31;;;;;;;12.30;9.73;;;;;;;;;;5050428;28;20445;-85
2023/01/23 05:19:57;;;;;;;12.50;9.53;;;;;;;;;;5048969;28;20545;-85
2023/01/23 05:22:23;;;;;;;11.40;9.40;;;;;;;;;;5050490;28;20461;-86
2023/01/23 05:24:49;;;;;;;12.63;9.70;;;;;;;;;;5036619;28;20400;-85
2023/01/23 05:27:16;;;;;;;13.27;10.77;;;;;;;;;;5033939;28;20436;-85
2023/01/23 05:29:42;;;;;;;13.57;11.17;;;;;;;;;;5036391;28;20433;-85
2023/01/23 05:32:08;;;;;;;14.33;9.93;;;;;;;;;;5035713;28;20420;-85
2023/01/23 05:34:34;;;;;;;12.13;9.90;;;;;;;;;;5051156;28;20440;-85
2023/01/23 05:37:00;;;;;;;12.70;10.00;;;;;;;;;;5035272;28;20421;-85
2023/01/23 05:39:26;;;;;;;13.20;10.77;;;;;;;;;;5034175;28;20475;-85
2023/01/23 05:41:52;;;;;;;11.77;9.87;;;;;;;;;;5035118;28;20174;-85
2023/01/23 05:44:18;;;;;;;13.00;10.30;;;;;;;;;;5034216;28;20455;-85
2023/01/23 05:46:44;;;;;;;12.80;10.47;;;;;;;;;;5031734;28;20845;-85
2023/01/23 05:49:10;;;;;;;11.83;9.60;;;;;;;;;;5031090;28;20955;-84
2023/01/23 05:51:36;;;;;;;14.23;10.30;;;;;;;;;;5032626;28;20479;-84
2023/01/23 05:54:03;;;;;;;13.00;10.30;;;;;;;;;;5034911;28;20456;-84
2023/01/23 05:56:29;;;;;;;14.37;10.73;;;;;;;;;;5026389;28;20432;-85
2023/01/23 05:58:55;;;;;;;13.10;10.53;;;;;;;;;;5046269;28;20523;-84
2023/01/23 06:01:21;;;;;;;12.43;10.07;;;;;;;;;;5031760;28;20892;-84
2023/01/23 06:03:47;;;;;;;15.27;11.17;;;;;;;;;;5031928;28;20460;-84
2023/01/23 06:06:14;;;;;;;13.73;10.20;;;;;;;;;;5031610;28;20473;-84
2023/01/23 06:08:41;;;;;;;12.57;10.13;;;;;;;;;;5031439;28;20426;-85
2023/01/23 06:11:07;;;;;;;14.53;10.67;;;;;;;;;;5031553;28;20457;-86
2023/01/23 06:13:33;;;;;;;12.27;9.57;;;;;;;;;;5031690;28;20458;-85
2023/01/23 06:15:59;;;;;;;13.23;10.27;;;;;;;;;;5051579;28;20423;-85
2023/01/23 06:18:25;;;;;;;13.30;10.00;;;;;;;;;;5032049;28;20452;-84
2023/01/23 06:20:56;;;;;;;11.20;8.90;;;;;;;;;;5032231;28;20500;-85
2023/01/23 06:23:22;;;;;;;12.73;9.43;;;;;;;;;;5032022;28;20441;-84
2023/01/23 06:25:48;;;;;;;11.77;9.97;;;;;;;;;;5047000;28;20444;-84
2023/01/23 06:28:14;;;;;;;12.73;10.00;;;;;;;;;;5031353;28;20429;-86
2023/01/23 06:30:40;;;;;;;12.60;10.93;;;;;;;;;;5032924;28;20443;-86
2023/01/23 06:33:06;;;;;;;12.47;10.70;;;;;;;;;;5048149;28;20465;-85
2023/01/23 06:35:32;;;;;;;12.23;9.80;;;;;;;;;;5026815;28;20942;-89
2023/01/23 06:37:59;;;;;;;12.73;9.53;;;;;;;;;;5043841;28;20440;-89
2023/01/23 06:40:25;;;;;;;11.60;9.70;;;;;;;;;;5041809;28;20460;-89
2023/01/23 06:42:54;;;;;;;11.77;9.97;;;;;;;;;;5043450;28;20429;-89
2023/01/23 06:45:20;;;;;;;12.10;9.73;;;;;;;;;;5034901;28;20428;-89
2023/01/23 06:47:46;;;;;;;13.97;10.23;;;;;;;;;;5035641;28;20437;-89
2023/01/23 06:50:12;;;;;;;13.53;10.83;;;;;;;;;;5033237;28;20501;-88
2023/01/23 06:52:38;;;;;;;11.47;9.50;;;;;;;;;;5031252;28;20871;-90
2023/01/23 06:55:05;;;;;;;11.77;9.87;;;;;;;;;;5032207;28;20431;-89
2023/01/23 06:57:31;;;;;;;12.70;9.57;;;;;;;;;;5034956;28;20404;-88
2023/01/23 06:59:58;;;;;;;14.63;11.20;;;;;;;;;;5029233;28;20543;-89
2023/01/23 07:02:24;;;;;;;13.80;10.43;;;;;;;;;;5022980;28;20460;-89
2023/01/23 07:04:50;;;;;;;13.20;10.53;;;;;;;;;;5022253;28;20439;-89
2023/01/23 07:07:16;;;;;;;13.10;10.77;;;;;;;;;;5027666;28;20273;-88
2023/01/23 07:09:42;;;;;;;12.23;10.03;;;;;;;;;;5025225;28;20514;-88
2023/01/23 07:12:08;;;;;;;11.50;9.83;;;;;;;;;;5024632;28;20472;-89
2023/01/23 07:14:34;;;;;;;13.87;10.67;;;;;;;;;;5043318;28;20463;-88
2023/01/23 07:17:00;;;;;;;13.90;10.70;;;;;;;;;;5026941;28;20742;-88
2023/01/23 07:19:27;;;;;;;14.10;11.60;;;;;;;;;;5042337;28;20471;-88
2023/01/23 07:21:53;;;;;;;12.97;11.03;;;;;;;;;;5028877;28;20439;-87
2023/01/23 07:24:19;;;;;;;13.93;11.03;;;;;;;;;;5016885;28;20437;-88
2023/01/23 07:26:45;;;;;;;13.50;11.37;;;;;;;;;;5029658;28;20424;-88
2023/01/23 07:29:11;;;;;;;13.17;9.87;;;;;;;;;;5033028;28;20848;-88
2023/01/23 07:31:37;;;;;;;14.77;11.87;;;;;;;;;;5041855;28;20824;-88
2023/01/23 07:34:03;;;;;;;15.13;11.73;;;;;;;;;;5034983;28;20412;-87
2023/01/23 07:36:29;;;;;;;15.03;11.67;;;;;;;;;;5031919;28;20428;-89
2023/01/23 07:38:55;;;;;;;14.27;11.53;;;;;;;;;;5032026;28;20253;-87
2023/01/23 07:41:21;;;;;;;14.73;12.00;;;;;;;;;;5031309;28;20424;-88
2023/01/23 07:43:47;;;;;;;14.43;11.17;;;;;;;;;;5033508;28;20436;-88
2023/01/23 07:46:13;;;;;;;16.10;11.50;;;;;;;;;;5026250;28;20471;-89
2023/01/23 07:48:40;;;;;;;15.63;11.57;;;;;;;;;;5026389;28;20429;-88
2023/01/23 07:51:06;;;;;;;16.50;12.30;;;;;;;;;;5034844;28;20494;-89
2023/01/23 07:53:32;;;;;;;16.70;13.03;;;;;;;;;;5033874;28;20460;-88
2023/01/23 07:55:58;;;;;;;16.20;12.27;;;;;;;;;;5032482;28;20451;-87
2023/01/23 07:58:24;;;;;;;17.03;12.10;;;;;;;;;;5031782;28;20481;-88
2023/01/23 08:00:50;;;;;;;16.73;12.17;;;;;;;;;;5027627;28;20491;-88
2023/01/23 08:03:17;;;;;;;17.67;11.60;;;;;;;;;;5030345;28;20440;-89
2023/01/23 08:05:47;;;;;;;17.17;12.50;;;;;;;;;;5033006;28;20464;-87
2023/01/23 08:08:13;;;;;;;16.80;11.90;;;;;;;;;;5030862;28;20769;-89
2023/01/23 08:10:39;;;;;;;17.67;12.67;;;;;;;;;;5026022;28;20751;-88
2023/01/23 08:13:05;;;;;;;16.83;12.63;;;;;;;;;;5025649;28;20432;-87
2023/01/23 08:15:31;;;;;;;18.13;12.80;;;;;;;;;;5031857;28;20469;-88
2023/01/23 08:17:57;;;;;;;17.60;12.73;;;;;;;;;;5032401;28;20526;-88
2023/01/23 08:20:23;;;;;;;16.97;12.03;;;;;;;;;;5026888;28;20479;-88
2023/01/23 08:22:49;;;;;;;15.73;11.67;;;;;;;;;;5021591;28;20429;-88
2023/01/23 08:25:15;;;;;;;18.80;12.97;;;;;;;;;;5030861;28;20882;-88
2023/01/23 08:27:41;;;;;;;15.93;13.20;;;;;;;;;;5026493;28;20433;-88
2023/01/23 08:30:08;;;;;;;14.93;12.13;;;;;;;;;;5030699;28;20436;-89
2023/01/23 08:32:35;;;;;;;15.90;11.47;;;;;;;;;;5026635;28;20571;-88
2023/01/23 08:35:02;;;;;;;15.07;11.33;;;;;;;;;;5026925;28;20433;-88
2023/01/23 08:37:28;;;;;;;19.17;12.87;;;;;;;;;;5030324;28;20961;-88
2023/01/23 08:39:55;;;;;;;16.80;11.63;;;;;;;;;;5037191;28;20464;-88
2023/01/23 08:42:21;;;;;;;15.80;11.37;;;;;;;;;;5033401;28;20433;-88
2023/01/23 08:44:47;;;;;;;18.00;11.97;;;;;;;;;;5032940;28;20440;-89
2023/01/23 08:47:13;;;;;;;18.27;12.17;;;;;;;;;;5022256;28;20198;-88
2023/01/23 08:49:39;;;;;;;13.70;10.70;;;;;;;;;;5024881;28;20430;-88
2023/01/23 08:52:05;;;;;;;17.63;12.20;;;;;;;;;;5023577;28;20974;-88
2023/01/23 08:54:31;;;;;;;18.33;12.20;;;;;;;;;;5025606;28;20654;-87
2023/01/23 08:56:57;;;;;;;17.67;12.57;;;;;;;;;;5025599;28;21026;-88
2023/01/23 08:59:23;;;;;;;14.63;11.10;;;;;;;;;;5027264;28;20531;-89
2023/01/23 09:01:50;;;;;;;17.33;13.03;;;;;;;;;;5044142;28;20513;-88
2023/01/23 09:04:16;;;;;;;16.47;11.37;;;;;;;;;;5025661;28;20523;-89
2023/01/23 09:06:42;;;;;;;16.70;11.40;;;;;;;;;;5043571;28;20752;-89
2023/01/23 09:09:08;;;;;;;16.77;11.57;;;;;;;;;;5029738;28;20437;-89
2023/01/23 09:11:34;;;;;;;17.63;12.40;;;;;;;;;;5040767;28;20425;-88
2023/01/23 09:14:00;;;;;;;16.67;12.27;;;;;;;;;;5041298;28;20413;-89
2023/01/23 09:16:26;;;;;;;16.97;11.07;;;;;;;;;;5027446;28;20989;-86
2023/01/23 09:18:54;;;;;;;16.53;12.07;;;;;;;;;;5030991;28;20479;-86
2023/01/23 09:21:20;;;;;;;15.73;11.43;;;;;;;;;;5023532;28;20454;-87
2023/01/23 09:23:46;;;;;;;18.60;12.67;;;;;;;;;;5026493;28;20425;-87
2023/01/23 09:26:13;;;;;;;15.73;11.03;;;;;;;;;;5032922;28;20433;-86
2023/01/23 09:28:41;;;;;;;18.00;13.07;;;;;;;;;;5030044;28;20188;-90
2023/01/23 09:31:08;;;;;;;16.77;11.97;;;;;;;;;;5024440;28;20428;-86
2023/01/23 09:33:34;;;;;;;17.23;12.13;;;;;;;;;;5024310;28;20441;-87
2023/01/23 09:36:01;;;;;;;15.67;11.77;;;;;;;;;;5030135;28;20185;-86
2023/01/23 09:38:27;;;;;;;15.33;11.67;;;;;;;;;;5024706;28;20443;-87
2023/01/23 09:40:55;;;;;;;16.87;12.47;;;;;;;;;;5033167;28;20472;-87
2023/01/23 09:43:30;;;;;;;16.07;12.43;;;;;;;;;;5029270;28;20429;-86
2023/01/23 09:46:07;;;;;;;16.90;11.90;;;;;;;;;;5022849;28;20186;-86
2023/01/23 09:48:39;;;;;;;14.17;11.10;;;;;;;;;;5022685;28;20194;-87
2023/01/23 09:51:11;;;;;;;15.70;11.73;;;;;;;;;;5038649;28;20511;-88
2023/01/23 09:53:38;;;;;;;13.63;10.87;;;;;;;;;;5027082;28;20452;-87
2023/01/23 09:56:05;;;;;;;14.13;9.83;;;;;;;;;;5032879;28;20179;-87
2023/01/23 09:58:35;;;;;;;15.23;11.33;;;;;;;;;;5023928;28;20436;-87
2023/01/23 10:01:01;;;;;;;17.23;11.00;;;;;;;;;;5030008;28;20526;-87
2023/01/23 10:03:29;;;;;;;16.37;11.37;;;;;;;;;;5020905;28;20621;-86
2023/01/23 10:05:55;;;;;;;13.70;10.17;;;;;;;;;;5029795;28;20444;-87
2023/01/23 10:08:28;;;;;;;15.33;11.13;;;;;;;;;;5037415;28;20471;-88
2023/01/23 10:10:57;;;;;;;15.33;11.07;;;;;;;;;;5013029;28;20266;-87
2023/01/23 10:13:23;;;;;;;15.10;10.97;;;;;;;;;;5021667;28;20440;-88
2023/01/23 10:15:52;;;;;;;15.17;10.93;;;;;;;;;;5041739;28;20441;-87
2023/01/23 10:18:27;;;;;;;14.27;10.43;;;;;;;;;;5032929;28;20217;-87
2023/01/23 10:21:02;;;;;;;13.47;10.90;;;;;;;;;;5023768;28;20295;-87
2023/01/23 10:23:40;;;;;;;13.57;9.47;;;;;;;;;;5034866;28;20424;-87
2023/01/23 10:26:11;;;;;;;12.03;9.27;;;;;;;;;;5028146;28;20186;-87
2023/01/23 10:28:42;;;;;;;12.47;10.13;;;;;;;;;;5027525;28;20856;-86
2023/01/23 10:31:10;;;;;;;12.83;10.13;;;;;;;;;;5017870;28;20499;-87
2023/01/23 10:33:40;;;;;;;14.30;9.80;;;;;;;;;;5029929;28;20479;-89
2023/01/23 10:36:25;;;;;;;12.53;9.33;;;;;;;;;;5026929;28;20429;-87
2023/01/23 10:38:58;;;;;;;12.97;9.43;;;;;;;;;;5043913;28;20488;-87
2023/01/23 10:41:24;;;;;;;11.20;8.47;;;;;;;;;;5034789;28;20167;-87
2023/01/23 10:43:51;;;;;;;15.03;9.60;;;;;;;;;;5028750;28;20428;-87
2023/01/23 10:46:19;;;;;;;13.23;10.13;;;;;;;;;;5027312;28;20606;-87
2023/01/23 10:48:47;;;;;;;11.27;8.17;;;;;;;;;;5029307;28;20181;-86
2023/01/23 10:51:30;;;;;;;12.80;9.23;;;;;;;;;;5022473;28;20478;-87
2023/01/23 10:53:59;;;;;;;12.37;8.10;;;;;;;;;;5046878;28;20457;-87
2023/01/23 10:56:26;;;;;;;11.40;8.97;;;;;;;;;;5046122;28;20189;-86
2023/01/23 10:58:54;;;;;;;10.90;8.97;;;;;;;;;;5024682;28;20928;-86
2023/01/23 11:01:28;;;;;;;9.43;7.87;;;;;;;;;;5037006;28;20433;-86
2023/01/23 11:03:55;;;;;;;11.70;8.80;;;;;;;;;;5026023;28;20428;-86
2023/01/23 11:06:24;;;;;;;10.30;7.80;;;;;;;;;;5041243;28;20436;-85
2023/01/23 11:08:59;;;;;;;11.33;8.47;;;;;;;;;;5026457;28;20433;-85
2023/01/23 11:11:26;;;;;;;9.83;8.33;;;;;;;;;;5039839;28;20424;-88
2023/01/23 11:14:23;;;;;;;11.30;8.37;;;;;;;;;;5040762;28;21016;-85
2023/01/23 11:17:00;;;;;;;9.90;7.63;;;;;;;;;;5020688;28;20470;-86
2023/01/23 11:19:26;;;;;;;12.43;9.13;;;;;;;;;;5039662;28;20453;-84
2023/01/23 11:21:56;;;;;;;9.17;7.30;;;;;;;;;;5023882;28;20445;-79
2023/01/23 11:24:25;;;;;;;10.13;8.13;;;;;;;;;;5026650;28;20436;-81
2023/01/23 11:26:59;;;;;;;10.17;8.50;;;;;;;;;;5029679;28;20492;-82
2023/01/23 11:29:26;;;;;;;9.40;7.73;;;;;;;;;;5014156;28;20443;-86
2023/01/23 11:31:58;;;;;;;9.03;7.67;;;;;;;;;;5026740;28;20509;-85
2023/01/23 11:34:27;;;;;;;9.57;7.80;;;;;;;;;;5037675;28;20431;-86
2023/01/23 11:37:22;;;;;;;9.63;8.60;;;;;;;;;;5022226;28;20442;-85
2023/01/23 11:39:57;;;;;;;10.20;8.10;;;;;;;;;;5020044;28;20298;-85
2023/01/23 11:42:24;;;;;;;10.00;8.07;;;;;;;;;;5023110;28;21020;-87
2023/01/23 11:44:50;;;;;;;10.43;8.13;;;;;;;;;;5041295;28;20450;-88
2023/01/23 11:47:48;;;;;;;10.03;8.40;;;;;;;;;;5048123;28;20202;-88
2023/01/23 11:50:17;;;;;;;11.93;8.23;;;;;;;;;;4998279;28;20425;-87
2023/01/23 11:52:48;;;;;;;9.57;7.60;;;;;;;;;;5029254;28;20230;-87
2023/01/23 11:55:26;;;;;;;9.80;7.63;;;;;;;;;;5024504;28;20840;-87
2023/01/23 11:58:13;;;;;;;9.17;7.70;;;;;;;;;;5035119;28;20268;-88
2023/01/23 12:00:44;;;;;;;7.77;6.93;;;;;;;;;;5038538;28;20468;-88
2023/01/23 12:03:23;;;;;;;10.07;8.37;;;;;;;;;;5018387;28;20186;-88
2023/01/23 12:05:59;;;;;;;8.40;7.03;;;;;;;;;;5037308;28;20177;-88
2023/01/23 12:08:44;;;;;;;8.63;7.27;;;;;;;;;;5024732;28;20944;-88
2023/01/23 12:11:15;;;;;;;7.87;6.20;;;;;;;;;;5031572;28;20236;-88
2023/01/23 12:13:51;;;;;;;9.93;7.83;;;;;;;;;;5041975;28;20194;-88
2023/01/23 12:16:32;;;;;;;9.07;7.03;;;;;;;;;;5033920;28;20185;-88
2023/01/23 12:19:08;;;;;;;9.43;7.03;;;;;;;;;;5041952;28;20185;-88
2023/01/23 12:21:54;;;;;;;7.90;6.13;;;;;;;;;;5039629;28;20504;-88
2023/01/23 12:24:44;;;;;;;9.13;6.70;;;;;;;;;;5031937;28;20213;-87
2023/01/23 12:27:16;;;;;;;7.50;5.67;;;;;;;;;;5043798;28;20170;-88
2023/01/23 12:29:49;;;;;;;9.00;7.33;;;;;;;;;;5035604;28;20227;-86
2023/01/23 12:32:44;;;;;;;8.90;6.97;;;;;;;;;;5036587;28;20217;-86
2023/01/23 12:35:29;;;;;;;7.47;6.10;;;;;;;;;;5024470;28;20213;-86
2023/01/23 12:38:13;;;;;;;6.90;5.53;;;;;;;;;;5034816;28;20440;-86
2023/01/23 12:40:57;;;;;;;8.07;5.83;;;;;;;;;;5024632;28;20656;-86
2023/01/23 12:43:34;;;;;;;8.27;6.60;;;;;;;;;;5021100;28;20186;-85
2023/01/23 12:46:04;;;;;;;7.80;6.47;;;;;;;;;;5038005;28;20197;-86
2023/01/23 12:48:37;;;;;;;7.33;6.00;;;;;;;;;;5024374;28;20174;-86
2023/01/23 12:51:08;;;;;;;7.30;6.17;;;;;;;;;;5030915;28;20530;-86
2023/01/23 12:53:36;;;;;;;6.10;5.40;;;;;;;;;;5044028;28;20202;-85
2023/01/23 12:56:05;;;;;;;6.67;5.93;;;;;;;;;;5030632;28;20260;-86
2023/01/23 12:58:34;;;;;;;6.70;5.50;;;;;;;;;;5040720;28;20194;-86
2023/01/23 13:01:10;;;;;;;6.80;5.53;;;;;;;;;;5043575;28;20211;-86
2023/01/23 13:03:39;;;;;;;6.50;5.80;;;;;;;;;;5040154;28;20711;-86
2023/01/23 13:06:17;;;;;;;6.33;5.43;;;;;;;;;;5045345;28;20189;-86
2023/01/23 13:08:50;;;;;;;6.60;5.90;;;;;;;;;;5045301;28;20213;-86
2023/01/23 13:14:00;;;;;;;5.20;4.70;;;;;;;;;;5024776;28;20331;-86
2023/01/23 13:16:30;;;;;;;7.10;5.40;;;;;;;;;;5026920;28;20204;-86
2023/01/23 13:22:03;;;;;;;6.53;5.53;;;;;;;;;;5029584;28;20180;-86
2023/01/23 13:27:34;;;;;;;7.40;5.93;;;;;;;;;;5032720;28;20200;-87
2023/01/23 13:30:01;;;;;;;6.40;5.37;;;;;;;;;;5041388;28;20194;-87
2023/01/23 13:32:30;;;;;;;6.20;5.03;;;;;;;;;;5023035;28;20185;-85
2023/01/23 13:34:57;;;;;;;6.13;5.43;;;;;;;;;;5026024;28;20793;-86
2023/01/23 13:37:43;;;;;;;6.13;5.47;;;;;;;;;;5024202;28;20497;-86
2023/01/23 13:40:12;;;;;;;6.37;5.60;;;;;;;;;;5024415;28;20358;-86
2023/01/23 13:42:38;;;;;;;7.27;5.77;;;;;;;;;;5019147;28;20719;-85
2023/01/23 13:45:17;;;;;;;6.43;5.73;;;;;;;;;;5030617;28;20177;-85
2023/01/23 13:50:41;;;;;;;7.30;6.17;;;;;;;;;;5034588;28;20189;-85
2023/01/23 13:58:44;;;;;;;6.90;5.83;;;;;;;;;;5029206;28;20205;-86
2023/01/23 14:06:58;;;;;;;8.07;6.40;;;;;;;;;;5025299;28;20464;-86
2023/01/23 14:09:26;;;;;;;8.13;6.83;;;;;;;;;;5030780;28;20199;-87
2023/01/23 14:12:06;;;;;;;8.33;6.63;;;;;;;;;;5039277;28;20225;-86
2023/01/23 14:17:19;;;;;;;6.90;5.83;;;;;;;;;;5029658;28;20435;-84
2023/01/23 14:19:54;;;;;;;8.73;6.57;;;;;;;;;;5027501;28;20228;-85
2023/01/23 14:22:21;;;;;;;9.63;6.73;;;;;;;;;;5039152;28;20594;-87
2023/01/23 14:24:53;;;;;;;7.93;6.23;;;;;;;;;;5034177;28;20185;-86
2023/01/23 14:27:36;;;;;;;7.63;6.50;;;;;;;;;;5027823;28;20174;-86
2023/01/23 14:30:02;;;;;;;6.37;5.70;;;;;;;;;;5040640;28;20285;-85
2023/01/23 14:32:30;;;;;;;8.03;6.73;;;;;;;;;;5026988;28;20189;-88
2023/01/23 14:34:56;;;;;;;7.77;6.40;;;;;;;;;;5029499;28;20185;-88
2023/01/23 14:37:22;;;;;;;8.03;6.87;;;;;;;;;;5041905;28;20681;-89
2023/01/23 14:39:48;;;;;;;11.23;8.63;;;;;;;;;;5028966;28;20197;-88
2023/01/23 14:42:28;;;;;;;9.73;7.40;;;;;;;;;;5042500;28;20174;-88
2023/01/23 14:44:55;;;;;;;19.03;7.50;;;;;;;;;;5030004;28;20170;-88
2023/01/23 14:47:32;;;;;;;9.33;8.33;;;;;;;;;;5023003;28;20188;-88
2023/01/23 14:49:59;;;;;;;9.53;8.07;;;;;;;;;;5026167;28;20357;-88
2023/01/23 14:52:29;;;;;;;10.27;8.97;;;;;;;;;;5036537;28;20808;-88
2023/01/23 14:54:55;;;;;;;11.33;8.33;;;;;;;;;;5025259;28;20517;-88
2023/01/23 14:57:22;;;;;;;9.93;7.87;;;;;;;;;;5032490;28;20177;-88
2023/01/23 14:59:50;;;;;;;9.97;8.47;;;;;;;;;;5032298;28;20589;-89
2023/01/23 15:02:25;;;;;;;9.80;8.17;;;;;;;;;;5041828;28;20182;-88
2023/01/23 15:05:23;;;;;;;9.67;8.53;;;;;;;;;;5041361;28;20182;-89
2023/01/23 15:07:58;;;;;;;12.23;9.20;;;;;;;;;;5015630;28;20186;-89